createdAt,value
2023-09-18T00:04:37.345Z,12.53
2023-09-18T00:09:37.288Z,12.59
2023-09-18T00:14:37.190Z,12.68
2023-09-18T00:19:37.256Z,12.73
2023-09-18T00:24:37.056Z,12.82
2023-09-18T00:29:37.024Z,12.80
2023-09-18T00:34:36.964Z,12.84
2023-09-18T00:39:36.904Z,12.94
2023-09-18T00:44:36.812Z,12.93
2023-09-18T00:49:36.759Z,13.11
2023-09-18T00:54:36.692Z,13.21
2023-09-18T00:59:39.615Z,13.25
2023-09-18T01:04:36.537Z,13.44
2023-09-18T01:09:36.525Z,13.49
2023-09-18T01:14:36.466Z,13.45
2023-09-18T01:19:36.425Z,13.53
2023-09-18T01:24:36.276Z,13.58
2023-09-18T01:29:36.319Z,13.65
2023-09-18T01:34:36.140Z,13.78
2023-09-18T01:39:36.122Z,13.85
2023-09-18T01:44:36.042Z,13.88
2023-09-18T01:49:35.970Z,14.01
2023-09-18T01:54:35.891Z,13.96
2023-09-18T01:59:38.860Z,14.03
2023-09-18T02:05:05.753Z,14.08
2023-09-18T02:09:36.729Z,14.17
2023-09-18T02:14:35.638Z,14.23
2023-09-18T02:19:35.572Z,14.19
2023-09-18T02:24:35.470Z,14.24
2023-09-18T02:29:35.794Z,14.36
2023-09-18T02:34:35.353Z,14.27
2023-09-18T02:39:35.324Z,14.31
2023-09-18T02:44:35.295Z,14.29
2023-09-18T02:49:35.186Z,14.38
2023-09-18T02:54:35.112Z,14.48
2023-09-18T02:59:38.118Z,14.40
2023-09-18T03:04:34.944Z,14.65
2023-09-18T03:09:34.913Z,14.74
2023-09-18T03:14:34.854Z,14.80
2023-09-18T03:19:34.788Z,14.85
2023-09-18T03:24:34.688Z,14.97
2023-09-18T03:29:34.727Z,15.02
2023-09-18T03:34:34.547Z,15.06
2023-09-18T03:39:34.754Z,15.09
2023-09-18T03:44:34.428Z,15.12
2023-09-18T03:49:34.397Z,15.10
2023-09-18T03:54:34.263Z,15.14
2023-09-18T03:59:37.303Z,15.17
2023-09-18T04:04:34.188Z,15.30
2023-09-18T04:09:34.136Z,15.32
2023-09-18T04:14:34.061Z,15.44
2023-09-18T04:19:34.015Z,15.47
2023-09-18T04:24:33.885Z,15.56
2023-09-18T04:29:33.892Z,15.56
2023-09-18T04:34:33.765Z,15.62
2023-09-18T04:39:33.771Z,15.73
2023-09-18T04:44:33.670Z,15.80
2023-09-18T04:49:33.693Z,15.82
2023-09-18T04:54:33.533Z,15.94
2023-09-18T04:59:36.572Z,15.98
2023-09-18T05:04:33.369Z,15.97
2023-09-18T05:09:33.337Z,16.09
2023-09-18T05:14:33.336Z,16.19
2023-09-18T05:19:33.230Z,16.01
2023-09-18T05:24:33.161Z,16.06
2023-09-18T05:29:33.115Z,15.95
2023-09-18T05:34:33.829Z,15.82
2023-09-18T05:39:40.168Z,14.91
2023-09-18T05:44:32.903Z,14.10
2023-09-18T05:49:32.848Z,13.47
2023-09-18T05:54:32.877Z,12.96
2023-09-18T05:59:36.007Z,12.57
2023-09-18T06:04:32.608Z,11.91
2023-09-18T06:09:32.591Z,11.13
2023-09-18T06:14:32.466Z,10.23
2023-09-18T06:19:32.494Z,9.94
2023-09-18T06:24:32.376Z,10.07
2023-09-18T06:29:32.406Z,10.14
2023-09-18T06:34:39.589Z,10.15
2023-09-18T06:39:32.117Z,10.19
2023-09-18T06:44:32.129Z,10.33
2023-09-18T06:49:32.187Z,10.38
2023-09-18T06:54:32.020Z,10.38
2023-09-18T06:59:35.512Z,10.22
2023-09-18T07:04:31.836Z,10.30
2023-09-18T07:09:33.595Z,10.28
2023-09-18T07:14:31.727Z,10.18
2023-09-18T07:19:31.658Z,10.09
2023-09-18T07:24:31.556Z,9.97
2023-09-18T07:29:38.819Z,9.81
2023-09-18T07:34:31.382Z,9.45
2023-09-18T07:39:31.382Z,9.09
2023-09-18T07:44:31.283Z,8.77
2023-09-18T07:49:31.250Z,8.40
2023-09-18T07:54:31.268Z,8.25
2023-09-18T07:59:34.171Z,8.10
2023-09-18T08:04:31.034Z,8.14
2023-09-18T08:09:31.058Z,8.13
2023-09-18T08:14:30.987Z,8.12
2023-09-18T08:19:30.947Z,8.12
2023-09-18T08:24:38.197Z,8.14
2023-09-18T08:29:30.763Z,8.04
2023-09-18T08:34:30.679Z,8.06
2023-09-18T08:39:30.604Z,8.09
2023-09-18T08:44:30.637Z,8.10
2023-09-18T08:49:30.696Z,8.16
2023-09-18T08:54:30.581Z,8.12
2023-09-18T08:59:33.587Z,8.14
2023-09-18T09:04:30.317Z,8.06
2023-09-18T09:09:30.225Z,8.09
2023-09-18T09:14:30.398Z,8.13
2023-09-18T09:19:30.097Z,8.10
2023-09-18T09:24:30.017Z,8.12
2023-09-18T09:29:30.229Z,7.94
2023-09-18T09:34:29.866Z,7.82
2023-09-18T09:39:29.879Z,7.69
2023-09-18T09:44:29.776Z,7.63
2023-09-18T09:49:29.692Z,7.57
2023-09-18T09:54:29.593Z,7.61
2023-09-18T09:59:32.583Z,7.69
2023-09-18T10:04:29.487Z,7.56
2023-09-18T10:09:29.420Z,7.48
2023-09-18T10:14:29.366Z,7.39
2023-09-18T10:19:29.384Z,7.37
2023-09-18T10:24:29.196Z,7.43
2023-09-18T10:29:29.220Z,7.44
2023-09-18T10:34:29.146Z,7.43
2023-09-18T10:39:31.270Z,7.34
2023-09-18T10:44:29.012Z,7.26
2023-09-18T10:49:28.875Z,7.20
2023-09-18T10:54:28.841Z,7.23
2023-09-18T10:59:31.836Z,7.17
2023-09-18T11:04:28.704Z,7.17
2023-09-18T11:09:28.724Z,7.14
2023-09-18T11:14:28.554Z,7.06
2023-09-18T11:19:28.652Z,7.01
2023-09-18T11:24:28.481Z,6.99
2023-09-18T11:29:28.647Z,7.05
2023-09-18T11:34:28.336Z,7.11
2023-09-18T11:39:28.342Z,7.11
2023-09-18T11:44:37.959Z,7.05
2023-09-18T11:49:28.123Z,7.04
2023-09-18T11:54:28.041Z,7.15
2023-09-18T11:59:31.004Z,7.15
2023-09-18T12:04:28.098Z,7.32
2023-09-18T12:09:29.086Z,7.42
2023-09-18T12:14:27.760Z,7.45
2023-09-18T12:19:27.726Z,7.50
2023-09-18T12:24:27.622Z,7.39
2023-09-18T12:29:27.624Z,7.30
2023-09-18T12:34:27.567Z,7.25
2023-09-18T12:39:27.887Z,7.27
2023-09-18T12:44:27.402Z,7.24
2023-09-18T12:49:27.386Z,7.28
2023-09-18T12:54:27.236Z,7.34
2023-09-18T12:59:30.268Z,7.31
2023-09-18T13:04:27.152Z,7.37
2023-09-18T13:09:27.163Z,7.40
2023-09-18T13:14:34.396Z,7.43
2023-09-18T13:19:26.902Z,7.51
2023-09-18T13:24:27.086Z,7.51
2023-09-18T13:29:26.836Z,7.73
2023-09-18T13:34:26.796Z,7.86
2023-09-18T13:39:26.621Z,8.04
2023-09-18T13:44:26.715Z,8.18
2023-09-18T13:49:28.752Z,8.32
2023-09-18T13:54:26.511Z,8.43
2023-09-18T13:59:29.556Z,8.48
2023-09-18T14:04:26.353Z,8.61
2023-09-18T14:09:26.305Z,8.61
2023-09-18T14:14:26.202Z,8.77
2023-09-18T14:19:26.159Z,8.74
2023-09-18T14:24:26.065Z,8.80
2023-09-18T14:29:26.075Z,8.76
2023-09-18T14:34:25.926Z,8.67
2023-09-18T14:39:25.936Z,8.53
2023-09-18T14:44:25.763Z,8.46
2023-09-18T14:49:33.202Z,8.33
2023-09-18T14:54:25.649Z,8.28
2023-09-18T14:59:41.542Z,8.24
2023-09-18T15:04:26.539Z,8.18
2023-09-18T15:09:25.533Z,8.04
2023-09-18T15:14:25.558Z,7.93
2023-09-18T15:19:25.378Z,7.91
2023-09-18T15:24:25.277Z,7.91
2023-09-18T15:29:25.323Z,7.95
2023-09-18T15:34:32.552Z,7.98
2023-09-18T15:39:25.046Z,8.09
2023-09-18T15:44:25.055Z,8.12
2023-09-18T15:49:24.985Z,8.12
2023-09-18T15:54:25.298Z,8.11
2023-09-18T15:59:27.926Z,8.18
2023-09-18T16:04:24.935Z,8.29
2023-09-18T16:09:24.865Z,8.32
2023-09-18T16:14:24.648Z,8.39
2023-09-18T16:19:31.856Z,8.46
2023-09-18T16:24:24.462Z,8.46
2023-09-18T16:29:24.492Z,8.49
2023-09-18T16:34:24.361Z,8.57
2023-09-18T16:39:24.349Z,8.65
2023-09-18T16:44:24.316Z,8.70
2023-09-18T16:49:24.227Z,8.69
2023-09-18T16:54:24.114Z,8.75
2023-09-18T16:59:27.323Z,8.74
2023-09-18T17:04:24.015Z,8.79
2023-09-18T17:09:23.924Z,8.84
2023-09-18T17:14:23.803Z,8.91
2023-09-18T17:19:23.771Z,8.94
2023-09-18T17:24:23.669Z,9.03
2023-09-18T17:29:23.639Z,9.14
2023-09-18T17:34:23.555Z,9.22
2023-09-18T17:39:23.532Z,9.29
2023-09-18T17:44:23.402Z,9.40
2023-09-18T17:49:23.426Z,9.40
2023-09-18T17:54:23.308Z,9.52
2023-09-18T17:59:26.296Z,9.57
2023-09-18T18:04:23.205Z,9.72
2023-09-18T18:09:23.412Z,9.81
2023-09-18T18:14:23.002Z,9.89
2023-09-18T18:19:23.008Z,10.15
2023-09-18T18:24:22.964Z,10.16
2023-09-18T18:29:22.881Z,10.16
2023-09-18T18:34:22.766Z,10.18
2023-09-18T18:39:22.787Z,10.29
2023-09-18T18:44:22.681Z,10.24
2023-09-18T18:49:22.629Z,10.39
2023-09-18T18:54:22.549Z,10.33
2023-09-18T18:59:25.482Z,10.43
2023-09-18T19:04:22.615Z,10.48
2023-09-18T19:09:22.315Z,10.40
2023-09-18T19:14:22.273Z,10.47
2023-09-18T19:19:22.348Z,10.40
2023-09-18T19:24:23.023Z,10.40
2023-09-18T19:29:22.107Z,10.43
2023-09-18T19:34:21.994Z,10.51
2023-09-18T19:39:22.410Z,10.55
2023-09-18T19:44:21.849Z,10.58
2023-09-18T19:49:21.821Z,10.66
2023-09-18T19:54:21.707Z,10.73
2023-09-18T19:59:24.706Z,10.76
2023-09-18T20:04:21.975Z,10.89
2023-09-18T20:09:21.540Z,10.90
2023-09-18T20:14:31.052Z,10.93
2023-09-18T20:19:22.644Z,11.05
2023-09-18T20:24:21.308Z,11.15
2023-09-18T20:29:21.312Z,11.14
2023-09-18T20:34:21.166Z,11.23
2023-09-18T20:39:21.169Z,11.27
2023-09-18T20:44:21.079Z,11.32
2023-09-18T20:49:21.023Z,11.27
2023-09-18T20:54:20.947Z,11.31
2023-09-18T20:59:23.876Z,11.22
2023-09-18T21:04:20.937Z,11.19
2023-09-18T21:09:20.776Z,11.10
2023-09-18T21:14:20.671Z,11.22
2023-09-18T21:19:20.719Z,11.20
2023-09-18T21:24:20.568Z,11.20
2023-09-18T21:29:20.639Z,11.15
2023-09-18T21:34:20.414Z,11.09
2023-09-18T21:39:20.402Z,11.18
2023-09-18T21:44:20.302Z,11.27
2023-09-18T21:49:20.226Z,11.32
2023-09-18T21:54:20.195Z,11.34
2023-09-18T21:59:23.102Z,11.36
2023-09-18T22:09:19.995Z,11.39
2023-09-18T22:14:19.890Z,11.30
2023-09-18T22:19:19.846Z,11.25
2023-09-18T22:24:19.732Z,11.18
2023-09-18T22:29:19.774Z,11.06
2023-09-18T22:34:19.621Z,10.96
2023-09-18T22:39:20.618Z,11.01
2023-09-18T22:44:19.455Z,11.02
2023-09-18T22:49:19.428Z,11.10
2023-09-18T22:54:19.406Z,11.21
2023-09-18T22:59:22.345Z,11.33
2023-09-18T23:04:19.251Z,11.47
2023-09-18T23:09:19.177Z,11.40
2023-09-18T23:14:19.076Z,11.52
2023-09-18T23:19:19.086Z,11.59
2023-09-18T23:24:18.970Z,11.71
2023-09-18T23:29:18.926Z,11.81
2023-09-18T23:34:18.889Z,11.90
2023-09-18T23:39:18.790Z,11.98
2023-09-18T23:44:18.688Z,12.06
2023-09-18T23:49:18.972Z,12.11
2023-09-18T23:54:18.561Z,12.40
2023-09-18T23:59:21.521Z,12.14
